Tiempo atmosférico en la estación meteorológica de Bera, Navarra (78 m.)



Fecha
DESCASC
Temp. máxima en grados centígrados (hora)
DESCASC
Temp. mínima en grados centígrados (hora)
DESCASC
Temp. media en grados centígrados
DESCASC
Racha de viento máxima en m/sg (hora)
DESCASC
Velocidad máxima media en intervalos de 10 minutos(hora)
DESCASC
Precipitaciones diarias en mm
DESCASC
Precipitaciones de 00:00 a 06:00 en mm
DESCASC
Precipitaciones de 06:00 a 12:00 en mm
DESCASC
Precipitaciones de 12:00 a 18:00 en mm
DESCASC
Precipitaciones de 18:00 a 24:00 en mm
DESCASC
25-01-2020 16.1 (12:50) 5.9 (09:40) 11 6.67 (14:20) 2.78 (14:10) 1.4 0 0 0 1.4
24-01-2020 15.7 (15:00) 8.7 (20:50) 12.2 8.06 (00:20) 3.33 (11:00) 0 0 0 0 0
23-01-2020 11.6 (15:10) 3.6 (03:40) 7.6 10 (23:59) 3.61 (23:59) 4 0 4 0 0
22-01-2020 12.4 (14:40) 4.5 (00:00) 8.4 5 (14:50) 2.22 (14:50) 0 0 0 0 0
21-01-2020 4.9 (16:40) -2.2 (-00:0) 1.4 1.39 (02:30) 0.56 (18:00) 0.2 0 0.2 0 0
20-01-2020 5.4 (15:10) -0.5 (-00:0) 2.5 7.5 (04:00) 2.78 (04:00) 0 0 0 0 0
19-01-2020 9.5 (15:10) 3.7 (00:00) 6.6 12.22 (21:20) 5.28 (23:10) 6 6 0 0 0
18-01-2020 14.9 (16:20) 3.8 (00:00) 9.3 12.22 (15:50) 5 (15:50) 3.2 0 0 0 3.2
17-01-2020 16 (00:00) 3.9 (00:00) 10 11.11 (02:40) 4.44 (03:00) 14 0 8.4 1.6 4
16-01-2020 18.3 (15:30) 4 (00:00) 11.1 12.5 (09:50) 6.39 (09:50) 0 0 0 0 0
15-01-2020 15 (15:30) 4.1 (00:00) 9.5 15.56 (08:40) 6.94 (07:30) 0 0 0 0 0
14-01-2020 15.5 (14:00) 10.2 (00:00) 12.8 11.67 (14:50) 5 (15:40) 0 0 0 0 0
13-01-2020 15.1 (16:10) -0.5 (-00:0) 7.3 7.5 (17:20) 3.61 (20:10) 0 0 0 0 0
12-01-2020 12.2 (15:40) 0.1 (00:00) 6.1 2.5 (16:30) 1.67 (17:20) 0 0 0 0 0
11-01-2020 11.7 (15:40) 0.4 (00:00) 6 2.22 (07:50) 1.11 (16:40) 0.2 0 0 0.2 0
10-01-2020 12.8 (15:00) 3.7 (00:00) 8.3 6.94 (02:30) 2.78 (02:30) 21 6 8 6.8 0.2
09-01-2020 16.4 (12:50) 2.8 (00:00) 9.6 13.06 (17:50) 6.39 (17:50) 3.6 0 0 0 3.6
08-01-2020 16.6 (16:10) 2.9 (00:00) 9.8 2.78 (15:50) 1.39 (15:50) 0 0 0 0 0
07-01-2020 16.6 (16:00) 3.2 (00:00) 9.9 2.22 (17:00) 1.39 (17:00) 0 0 0 0 0
06-01-2020 14.5 (14:20) 0.3 (00:00) 7.4 5 (17:00) 2.5 (14:40) 0 0 0 0 0
05-01-2020 10.5 (14:00) 2.5 (00:00) 6.5 5.28 (15:40) 2.78 (14:50) 0 0 0 0 0
04-01-2020 11.6 (15:30) 4.2 (00:00) 7.9 4.17 (13:30) 1.67 (17:30) 5.8 2.2 3 0.6 0
03-01-2020 9.2 (16:00) -0.5 (-00:0) 4.3 1.67 (07:10) 0.56 (15:10) 1.6 0 0 0 1.6
02-01-2020 16.3 (14:10) -0.7 (-00:0) 7.8 6.11 (14:20) 2.22 (14:20) 0.2 0 0.2 0 0
01-01-2020 15 (14:50) 1.1 (00:00) 8.1 4.17 (16:00) 1.67 (16:00) 0 0 0 0 0
31-12-2019 12.8 (15:20) -1.8 (-00:0) 5.5 2.5 (15:30) 1.39 (15:30) 0 0 0 0 0
30-12-2019 -- (--) -- (--) -- -- (--) -- (--) -- 0 0.2 0 --
29-12-2019 12.8 (15:10) -0.1 (00:00) 6.4 1.39 (17:00) 0.83 (16:40) 0.2 0 0.2 0 0
28-12-2019 11.9 (15:40) 1.3 (00:00) 6.6 3.61 (14:40) 1.67 (14:40) 0.2 0 0.2 0 0

Gráficas

Temp. máximas Temp. mínimas Temp. medias Precipitaciones Rachas de viento máximas Velocidades máximas media en intervalos de 10 minutos

Datos horarios

Fecha y hora oficial Temperatura (ºC) Velocidad del viento (km/h) Dirección del viento Racha (km/h) Dirección de racha Precipitación (mm) Presión (hPa) Tendencia (hPa) Humedad (%)
2020-01-26 23:00:00 3.4 0 Calma 5 Sudeste 0 -- -- 95
2020-01-26 22:00:00 4.2 0 Calma 5 Sur 0 -- -- 95
2020-01-26 21:00:00 5.1 0 Calma 4 Este 0 -- -- 94
2020-01-26 20:00:00 5.9 0 Calma 3 Sudeste 0 -- -- 92
2020-01-26 19:00:00 7.2 2 Sudeste 6 Sudeste 0 -- -- 88
2020-01-26 18:00:00 9.6 3 Sudeste 6 Sudeste 0 -- -- 82
2020-01-26 17:00:00 13.4 3 Sur 16 Noroeste 0 -- -- 69
2020-01-26 16:00:00 15.3 4 Noroeste 12 Noroeste 0 -- -- 62
2020-01-26 15:00:00 16.7 3 Sudoeste 5 Sudoeste 0 -- -- 55
2020-01-26 14:00:00 15.4 2 Sudeste 5 Este 0 -- -- 62
2020-01-26 13:00:00 13.6 2 Norte 5 Noroeste 0 -- -- 69
2020-01-26 12:00:00 12.3 0 Calma 4 Sudoeste 0 -- -- 83
2020-01-26 11:00:00 9.2 0 Calma 4 Este 0 -- -- 97
2020-01-26 10:00:00 8.7 0 Calma 2 Sur 0 -- -- 98
2020-01-26 09:00:00 8.3 0 Calma 3 Sudeste 0 -- -- 97
2020-01-26 08:00:00 8.4 0 Calma 2 Sur 0.2 -- -- 97
2020-01-26 07:00:00 8.4 0 Calma 2 Sudoeste 0 -- -- 97
2020-01-26 06:00:00 8.5 0 Calma 4 Este 0.4 -- -- 97
2020-01-26 05:00:00 8.5 0 Calma 3 Sur 0 -- -- 97
2020-01-26 04:00:00 8.7 0 Calma 3 Sur 0 -- -- 97
2020-01-26 03:00:00 8.8 0 Calma 2 Este 0.8 -- -- 97
2020-01-26 02:00:00 8.9 0 Calma 2 Sur 2.4 -- -- 96
2020-01-26 01:00:00 8.9 0 Calma 4 Sur 1.8 -- -- 96
2020-01-26 00:00:00 8.9 0 Calma 2 Sur 0.6 -- -- 94
2020-01-25 23:00:00 9.2 0 Calma 4 Nordeste 0.8 -- -- 92
2020-01-25 22:00:00 9.4 0 Calma 4 Sur 0 -- -- 89
2020-01-25 21:00:00 9.9 0 Calma 7 Sudeste 0 -- -- 87
2020-01-25 20:00:00 10.5 2 Sudeste 8 Este 0 -- -- 82
2020-01-25 19:00:00 10.6 0 Calma 7 Este 0 -- -- 81
2020-01-25 18:00:00 11.5 3 Sudeste 10 Sur 0 -- -- 75
2020-01-25 17:00:00 12.6 0 Calma 8 Nordeste 0 -- -- 74
2020-01-25 16:00:00 13.3 5 Sudoeste 14 Sudoeste 0 -- -- 67
2020-01-25 15:00:00 13.7 4 Sudoeste 24 Sur 0 -- -- 62
2020-01-25 14:00:00 14.8 5 Sudoeste 19 Sudoeste 0 -- -- 59
2020-01-25 13:00:00 16 8 Sur 22 Sudoeste 0 -- -- 52
2020-01-25 12:00:00 13.8 7 Sur 20 Sur 0 -- -- 58
2020-01-25 11:00:00 10.5 3 Sur 12 Sudoeste 0 -- -- 74
2020-01-25 10:00:00 6.2 0 Calma 3 Nordeste 0 -- -- 90
2020-01-25 09:00:00 6.4 0 Calma 8 Este 0 -- -- 86
2020-01-25 08:00:00 6.8 4 Este 10 Este 0 -- -- 84
2020-01-25 07:00:00 8.3 3 Sudeste 12 Sudeste 0 -- -- 78
2020-01-25 06:00:00 9.7 5 Sudeste 17 Este 0 -- -- 72
2020-01-25 05:00:00 10.6 5 Sudeste 16 Este 0 -- -- 67
2020-01-25 04:00:00 10 6 Este 16 Sudeste 0 -- -- 69
2020-01-25 03:00:00 8.7 7 Sudeste 14 Sudeste 0 -- -- 76
2020-01-25 02:00:00 10.3 5 Este 14 Sudoeste 0 -- -- 70
2020-01-25 01:00:00 12.3 6 Sudeste 16 Sur 0 -- -- 62
2020-01-25 00:00:00 10.9 4 Este 14 Nordeste 0 -- -- 71
2020-01-24 23:00:00 12.6 6 Sur 19 Sur 0 -- -- 62
2020-01-24 22:00:00 11.8 5 Sudeste 17 Sur 0 -- -- 65
2020-01-24 21:00:00 8.8 0 Calma 6 Sudeste 0 -- -- 88
2020-01-24 20:00:00 9 0 Calma 5 Sudeste 0 -- -- 86
2020-01-24 19:00:00 10.2 0 Calma 6 Sudeste 0 -- -- 78
2020-01-24 18:00:00 12.5 3 Sudeste 6 Sudeste 0 -- -- 72
2020-01-24 17:00:00 14.8 0 Calma 13 Sudeste 0 -- -- 65
2020-01-24 16:00:00 15.3 4 Sudeste 21 Sudoeste 0 -- -- 55
2020-01-24 15:00:00 15.7 5 Sur 18 Sudoeste 0 -- -- 54
2020-01-24 14:00:00 15.3 9 Sudoeste 21 Sur 0 -- -- 53
2020-01-24 13:00:00 14.9 7 Sudoeste 27 Sudoeste 0 -- -- 55
2020-01-24 12:00:00 15.1 10 Sur 27 Sur 0 -- -- 55
2020-01-24 11:00:00 13.5 12 Sur 21 Sur 0 -- -- 62
2020-01-24 10:00:00 10.3 3 Sudeste 13 Sur 0 -- -- 73
2020-01-24 09:00:00 9.4 2 Noroeste 18 Sudeste 0 -- -- 76
2020-01-24 08:00:00 11.6 5 Sudeste 23 Sudoeste 0 -- -- 66
2020-01-24 07:00:00 11.4 5 Sudeste 25 Sudeste 0 -- -- 67
2020-01-24 06:00:00 11.3 4 Sur 19 Sur 0 -- -- 67
2020-01-24 05:00:00 11.1 3 Este 23 Este 0 -- -- 67
2020-01-24 04:00:00 10 3 Sudeste 14 Sudeste 0 -- -- 71
2020-01-24 03:00:00 10.6 7 Sudeste 19 Sudeste 0 -- -- 68
2020-01-24 02:00:00 10.4 3 Este 15 Este 0 -- -- 68
2020-01-24 01:00:00 11 6 Sudeste 29 Sur 0 -- -- 64
2020-01-24 00:00:00 11.3 13 Sur 36 Sur 0 -- -- 63
2020-01-23 23:00:00 11.2 7 Sudeste 25 Sudoeste 0 -- -- 64
2020-01-23 22:00:00 10.9 4 Sudeste 17 Este 0 -- -- 66
2020-01-23 21:00:00 10.5 4 Sudoeste 24 Sur 0 -- -- 68
2020-01-23 20:00:00 10.5 4 Sudeste 21 Nordeste 0 -- -- 71
2020-01-23 19:00:00 10.7 4 Sudeste 25 Este 0 -- -- 70
2020-01-23 18:00:00 10.8 6 Sudeste 23 Sur 0 -- -- 72
2020-01-23 17:00:00 10.9 4 Sur 20 Sur 0 -- -- 74
2020-01-23 16:00:00 11.3 2 Este 17 Sudeste 0 -- -- 78
2020-01-23 15:00:00 11.5 5 Sudeste 16 Sur 0 -- -- 77
2020-01-23 14:00:00 10.3 0 Calma 5 Noroeste 0 -- -- 92
2020-01-23 13:00:00 8.4 0 Calma 2 Oeste 0 -- -- 96
2020-01-23 12:00:00 7.1 0 Calma 3 Este 0 -- -- 98
2020-01-23 11:00:00 6.3 0 Calma 4 Noroeste 0.2 -- -- 99
2020-01-23 10:00:00 5.8 0 Calma 3 Oeste 0.6 -- -- 98
2020-01-23 09:00:00 5.3 0 Calma 2 Sudeste 1 -- -- 98
2020-01-23 08:00:00 5.2 0 Calma 5 Sudoeste 1.6 -- -- 98
2020-01-23 07:00:00 5 0 Calma 4 Este 0.6 -- -- 98
2020-01-23 06:00:00 4.6 0 Calma 5 Sudeste 0 -- -- 98
2020-01-23 05:00:00 4.1 0 Calma 5 Sudeste 0 -- -- 98
2020-01-23 04:00:00 3.6 2 Sudeste 4 Sudeste 0 -- -- 97
2020-01-23 03:00:00 4.3 2 Este 5 Sudeste 0 -- -- 95
2020-01-23 02:00:00 5.7 0 Calma 4 Sudeste 0 -- -- 95
2020-01-23 01:00:00 6.3 0 Calma 4 Sudeste 0 -- -- 95
2020-01-23 00:00:00 6.6 0 Calma 4 Sudeste 0 -- -- 95
2020-01-22 23:00:00 6.6 0 Calma 3 Sudeste 0 -- -- 94
2020-01-22 22:00:00 6.4 0 Calma 3 Este 0 -- -- 94
2020-01-22 21:00:00 6.5 0 Calma 5 Sudeste 0 -- -- 93
2020-01-22 20:00:00 6.7 0 Calma 5 Sudoeste 0 -- -- 91
2020-01-22 19:00:00 7.1 0 Calma 5 Este 0 -- -- 88
2020-01-22 18:00:00 8.8 3 Sudeste 6 Nordeste 0 -- -- 82
2020-01-22 17:00:00 10.5 3 Este 13 Nordeste 0 -- -- 76
2020-01-22 16:00:00 10.9 6 Norte 17 Noroeste 0 -- -- 75
2020-01-22 15:00:00 11.8 8 Norte 18 Noroeste 0 -- -- 70
2020-01-22 14:00:00 11.2 0 Calma 6 Sudoeste 0 -- -- 74
2020-01-22 13:00:00 7.7 3 Sudeste 5 Sudeste 0 -- -- 87
2020-01-22 12:00:00 6.8 0 Calma 3 Noroeste 0 -- -- 92
2020-01-22 11:00:00 6 0 Calma 3 Este 0 -- -- 93
2020-01-22 10:00:00 5.5 0 Calma 4 Nordeste 0 -- -- 94
2020-01-22 09:00:00 5.2 0 Calma 4 Nordeste 0 -- -- 94
2020-01-22 08:00:00 5.1 0 Calma 5 Sudeste 0 -- -- 93
2020-01-22 07:00:00 5 0 Calma 3 Sudoeste 0 -- -- 93
2020-01-22 06:00:00 4.9 0 Calma 3 Este 0 -- -- 93
2020-01-22 05:00:00 4.8 0 Calma 4 Este 0 -- -- 92
2020-01-22 04:00:00 4.7 0 Calma 4 Sur 0 -- -- 92
2020-01-22 03:00:00 4.6 0 Calma 3 Sudoeste 0 -- -- 92
2020-01-22 02:00:00 4.6 0 Calma 3 Oeste 0 -- -- 92
2020-01-22 01:00:00 4.5 0 Calma 2 Este 0 -- -- 92
2020-01-22 00:00:00 4.5 0 Calma 0 Calma 0 -- -- 92
2020-01-21 23:00:00 4.4 0 Calma 2 Oeste 0 -- -- 92
2020-01-21 22:00:00 4.4 0 Calma 2 Sudeste 0 -- -- 91
2020-01-21 21:00:00 4.4 0 Calma 3 Sur 0 -- -- 91
2020-01-21 20:00:00 4.5 0 Calma 2 Sur 0 -- -- 91
2020-01-21 19:00:00 4.5 0 Calma 3 Noroeste 0 -- -- 89
2020-01-21 18:00:00 4.7 2 Norte 4 Nordeste 0 -- -- 86
2020-01-21 17:00:00 4.9 0 Calma 2 Nordeste 0 -- -- 86
2020-01-21 16:00:00 4.7 0 Calma 2 Nordeste 0 -- -- 86
2020-01-21 15:00:00 4.4 0 Calma 3 Nordeste 0 -- -- 88
2020-01-21 14:00:00 3.9 0 Calma 4 Nordeste 0 -- -- 90
2020-01-21 13:00:00 3.2 0 Calma 3 Noroeste 0 -- -- 92
2020-01-21 12:00:00 2.2 0 Calma 2 Nordeste 0 -- -- 93
2020-01-21 11:00:00 1.5 0 Calma 2 Este 0 -- -- 94
2020-01-21 10:00:00 0.9 0 Calma 2 Sudeste 0.2 -- -- 94
2020-01-21 09:00:00 0.5 0 Calma 2 Sur 0 -- -- 93
2020-01-21 08:00:00 0 0 Calma 2 Sudeste 0 -- -- 94
2020-01-21 07:00:00 -0.6 0 Calma 4 Este 0 -- -- 95
2020-01-21 06:00:00 -1.4 0 Calma 2 Oeste 0 -- -- 95
2020-01-21 05:00:00 -1.8 0 Calma 3 Este 0 -- -- 95
2020-01-21 04:00:00 -2.1 0 Calma 3 Sudeste 0 -- -- 94
2020-01-21 03:00:00 -1.9 0 Calma 5 Sudoeste 0 -- -- 94
2020-01-21 02:00:00 -1.6 0 Calma 4 Sudeste 0 -- -- 92
2020-01-21 01:00:00 -1 0 Calma 4 Sudeste 0 -- -- 92
2020-01-21 00:00:00 -0.5 0 Calma 4 Sudeste 0 -- -- 89
2020-01-20 23:00:00 0.9 2 Sudeste 6 Sudoeste 0 -- -- 83
2020-01-20 22:00:00 2.8 3 Sur 10 Sudeste 0 -- -- 75
2020-01-20 21:00:00 3.1 3 Sur 8 Sudoeste 0 -- -- 77
2020-01-20 20:00:00 2.4 3 Sudeste 10 Nordeste 0 -- -- 81
2020-01-20 19:00:00 3.7 0 Calma 3 Este 0 -- -- 84
2020-01-20 18:00:00 4 2 Sur 4 Sur 0 -- -- 82
2020-01-20 17:00:00 4.9 2 Noroeste 12 Noroeste 0 -- -- 71
2020-01-20 16:00:00 4.7 6 Norte 21 Norte 0 -- -- 71
2020-01-20 15:00:00 5.3 2 Sudoeste 9 Este 0 -- -- 66
2020-01-20 14:00:00 4.7 4 Sudeste 12 Sudeste 0 -- -- 71
2020-01-20 13:00:00 3.9 4 Sudeste 9 Sudeste 0 -- -- 74
2020-01-20 12:00:00 2.7 3 Sudeste 15 Sudeste 0 -- -- 77
2020-01-20 11:00:00 2.5 6 Este 15 Este 0 -- -- 77
2020-01-20 10:00:00 0.4 3 Este 10 Sudeste 0 -- -- 86
2020-01-20 09:00:00 0.7 2 Sur 16 Este 0 -- -- 82
2020-01-20 08:00:00 1.2 2 Nordeste 10 Sur 0 -- -- 81
2020-01-20 07:00:00 1.9 5 Nordeste 16 Nordeste 0 -- -- 77
2020-01-20 06:00:00 2.4 5 Nordeste 21 Nordeste 0 -- -- 75
2020-01-20 05:00:00 2.6 4 Nordeste 23 Nordeste 0 -- -- 74
2020-01-20 04:00:00 2.7 10 Nordeste 27 Nordeste 0 -- -- 76
2020-01-20 03:00:00 2.2 2 Este 14 Nordeste 0 -- -- 77
2020-01-20 02:00:00 1.8 3 Sudeste 10 Este 0 -- -- 79
2020-01-20 01:00:00 3.3 3 Este 18 Este 0 -- -- 72
2020-01-20 00:00:00 3.7 3 Este 37 Nordeste 0 -- -- 70
2020-01-19 23:00:00 5.1 19 Nordeste 41 Nordeste 0 -- -- 64
2020-01-19 22:00:00 5.5 13 Nordeste 44 Nordeste 0 -- -- 61
2020-01-19 21:00:00 6.1 19 Nordeste 38 Este 0 -- -- 58
2020-01-19 20:00:00 6.6 13 Nordeste 33 Norte 0 -- -- 59
2020-01-19 19:00:00 7.4 10 Nordeste 23 Nordeste 0 -- -- 54
2020-01-19 18:00:00 8 9 Nordeste 28 Nordeste 0 -- -- 50
2020-01-19 17:00:00 8.9 10 Nordeste 30 Nordeste 0 -- -- 49
2020-01-19 16:00:00 9.5 10 Nordeste 35 Este 0 -- -- 49
2020-01-19 15:00:00 9.4 7 Este 23 Este 0 -- -- 54
2020-01-19 14:00:00 8.3 5 Noroeste 21 Nordeste 0 -- -- 63
2020-01-19 13:00:00 8.1 7 Norte 23 Noroeste 0 -- -- 65
2020-01-19 12:00:00 7.6 5 Noroeste 13 Sudoeste 0 -- -- 68
2020-01-19 11:00:00 6.4 4 Nordeste 18 Este 0 -- -- 73
2020-01-19 10:00:00 5.8 5 Nordeste 14 Noroeste 0 -- -- 75
2020-01-19 09:00:00 5.6 6 Noroeste 15 Noroeste 0 -- -- 85
2020-01-19 08:00:00 6.4 2 Sudeste 19 Nordeste 0 -- -- 80
2020-01-19 07:00:00 6.8 4 Noroeste 22 Nordeste 0 -- -- 82
2020-01-19 06:00:00 6.9 9 Nordeste 23 Nordeste 0.2 -- -- 83
2020-01-19 05:00:00 7.1 9 Nordeste 22 Nordeste 0.4 -- -- 86
2020-01-19 04:00:00 7.6 0 Calma 7 Este 1 -- -- 96
2020-01-19 03:00:00 7.5 2 Este 12 Oeste 1.4 -- -- 96
2020-01-19 02:00:00 7.6 0 Calma 4 Sudeste 1.6 -- -- 95
2020-01-19 01:00:00 7.5 0 Calma 3 Sudoeste 1.4 -- -- 94
2020-01-19 00:00:00 7.9 2 Este 15 Sudoeste 1.6 -- -- 91
2020-01-18 23:00:00 8.6 6 Sudoeste 20 Sur 0.8 -- -- 84
2020-01-18 22:00:00 9.3 9 Sudoeste 24 Sudoeste 0 -- -- 79
2020-01-18 21:00:00 9.7 11 Sudoeste 27 Sudoeste 0.2 -- -- 78
2020-01-18 20:00:00 10.4 6 Sudoeste 28 Oeste 0.6 -- -- 82
2020-01-18 19:00:00 12.8 8 Sur 22 Sudoeste 0 -- -- 64
2020-01-18 18:00:00 13 10 Sudoeste 31 Sudoeste 0 -- -- 61
2020-01-18 17:00:00 13.9 7 Este 41 Sudoeste 0 -- -- 57
2020-01-18 16:00:00 14.6 18 Sudoeste 44 Sudoeste 0 -- -- 51
2020-01-18 15:00:00 13.8 7 Sudeste 25 Sudeste 0 -- -- 51
2020-01-18 14:00:00 13.3 6 Sur 31 Sur 0 -- -- 53
2020-01-18 13:00:00 13.5 9 Sur 27 Sur 0 -- -- 51
2020-01-18 12:00:00 12.5 6 Sur 18 Oeste 0 -- -- 55
2020-01-18 11:00:00 9.7 7 Sudoeste 26 Sudeste 0 -- -- 66
2020-01-18 10:00:00 5.2 2 Noroeste 9 Norte 0 -- -- 98
2020-01-18 09:00:00 4.4 0 Calma 4 Este 0 -- -- 98
2020-01-18 08:00:00 4 3 Sudeste 6 Este 0 -- -- 98
2020-01-18 07:00:00 4.3 0 Calma 3 Oeste 0 -- -- 98
2020-01-18 06:00:00 4.2 0 Calma 3 Norte 0 -- -- 98
2020-01-18 05:00:00 4.2 0 Calma 6 Este 0 -- -- 98
2020-01-18 04:00:00 4.1 0 Calma 4 Este 0 -- -- 98
2020-01-18 03:00:00 4.3 0 Calma 4 Este 0 -- -- 98
2020-01-18 02:00:00 4.7 0 Calma 4 Sudeste 0 -- -- 98
2020-01-18 01:00:00 4.4 0 Calma 3 Nordeste 0 -- -- 97
2020-01-18 00:00:00 3.9 0 Calma 4 Sudeste 0 -- -- 96
2020-01-17 23:00:00 4.8 0 Calma 4 Sur 0.2 -- -- 95
2020-01-17 22:00:00 6 3 Sur 6 Nordeste 3.2 -- -- 95
2020-01-17 21:00:00 6.1 0 Calma 5 Sudeste 0 -- -- 95
2020-01-17 20:00:00 7.5 2 Este 13 Oeste 0 -- -- 91
2020-01-17 19:00:00 8.1 4 Oeste 13 Noroeste 0.6 -- -- 92
2020-01-17 18:00:00 8.8 2 Este 9 Sur 0 -- -- 89
2020-01-17 17:00:00 9.4 6 Sudoeste 40 Noroeste 1 -- -- 82
2020-01-17 16:00:00 11.9 5 Noroeste 21 Noroeste 0 -- -- 70
2020-01-17 15:00:00 11.7 6 Noroeste 23 Oeste 0 -- -- 71
2020-01-17 14:00:00 11.8 10 Noroeste 37 Noroeste 0.4 -- -- 77
2020-01-17 13:00:00 10.6 2 Sudeste 16 Sudoeste 0.2 -- -- 83
2020-01-17 12:00:00 9.8 2 Este 22 Oeste 1.4 -- -- 87
2020-01-17 11:00:00 9.4 3 Este 14 Sudoeste 2.2 -- -- 92
2020-01-17 10:00:00 9.4 3 Noroeste 22 Oeste 1 -- -- 90
2020-01-17 09:00:00 9.7 6 Noroeste 21 Oeste 3 -- -- 88
2020-01-17 08:00:00 10.8 4 Norte 19 Oeste 0.8 -- -- 85
2020-01-17 07:00:00 12 0 Calma 19 Sudeste 0 -- -- 67
2020-01-17 06:00:00 13.7 7 Sudeste 22 Este 0 -- -- 57
2020-01-17 05:00:00 13.1 5 Sudeste 18 Sudeste 0 -- -- 59
2020-01-17 04:00:00 14.3 5 Sudeste 33 Sur 0 -- -- 55
2020-01-17 03:00:00 15.5 16 Sudoeste 40 Sur 0 -- -- 51
2020-01-17 02:00:00 15.8 6 Sur 23 Sudeste 0 -- -- 50
2020-01-17 01:00:00 15.9 9 Sudeste 21 Sur 0 -- -- 50
2020-01-17 00:00:00 16 9 Sur 42 Sur 0 -- -- 51
2020-01-16 23:00:00 16.1 6 Sur 23 Sudoeste 0 -- -- 50
2020-01-16 22:00:00 16.5 9 Sudeste 35 Sudeste 0 -- -- 51
2020-01-16 21:00:00 16.5 8 Sur 41 Sur 0 -- -- 54
2020-01-16 20:00:00 16.4 7 Este 27 Sur 0 -- -- 56
2020-01-16 19:00:00 16.3 5 Sur 17 Sur 0 -- -- 57
2020-01-16 18:00:00 16.5 3 Noroeste 22 Sudoeste 0 -- -- 57
2020-01-16 17:00:00 16.6 4 Nordeste 27 Sur 0 -- -- 56
2020-01-16 16:00:00 17.8 11 Sudoeste 34 Sur 0 -- -- 53
2020-01-16 15:00:00 18 9 Sur 37 Sur 0 -- -- 54
2020-01-16 14:00:00 17.6 10 Sudoeste 40 Sudoeste 0 -- -- 53
2020-01-16 13:00:00 17.2 8 Sudoeste 32 Sur 0 -- -- 54
2020-01-16 12:00:00 16.1 8 Nordeste 36 Sur 0 -- -- 55
2020-01-16 11:00:00 14.7 10 Sur 33 Este 0 -- -- 58
2020-01-16 10:00:00 13.5 15 Sudeste 45 Sur 0 -- -- 60
2020-01-16 09:00:00 13.3 12 Sudeste 35 Este 0 -- -- 59
2020-01-16 08:00:00 13.3 12 Sur 29 Sur 0 -- -- 60
2020-01-16 07:00:00 13.2 9 Sudeste 28 Sudeste 0 -- -- 60
2020-01-16 06:00:00 13.2 9 Sur 24 Sudeste 0 -- -- 60
2020-01-16 05:00:00 13 9 Sur 31 Este 0 -- -- 61
2020-01-16 04:00:00 12.8 5 Este 28 Sudeste 0 -- -- 60
2020-01-16 03:00:00 12.8 8 Sudeste 24 Sudeste 0 -- -- 60
2020-01-16 02:00:00 11.6 6 Sur 19 Sudeste 0 -- -- 66
2020-01-16 01:00:00 4.1 0 Calma 6 Sudeste 0 -- -- 92
2020-01-16 00:00:00 4.1 0 Calma 5 Sur 0 -- -- 91
2020-01-15 23:00:00 4.7 0 Calma 4 Sudeste 0 -- -- 90
2020-01-15 22:00:00 5.3 0 Calma 4 Sur 0 -- -- 89
2020-01-15 21:00:00 6.2 0 Calma 4 Sur 0 -- -- 85
2020-01-15 20:00:00 7.8 0 Calma 4 Noroeste 0 -- -- 80
2020-01-15 19:00:00 10.5 0 Calma 15 Sudeste 0 -- -- 69
2020-01-15 18:00:00 13.9 7 Sudeste 19 Este 0 -- -- 56
2020-01-15 17:00:00 14.7 5 Sudeste 24 Sudoeste 0 -- -- 54
2020-01-15 16:00:00 15 2 Este 18 Sudeste 0 -- -- 51
2020-01-15 15:00:00 14.5 9 Sur 22 Sur 0 -- -- 52
2020-01-15 14:00:00 14 8 Sur 29 Sudoeste 0 -- -- 53
2020-01-15 13:00:00 14.1 6 Sudeste 34 Sur 0 -- -- 52
2020-01-15 12:00:00 13.6 16 Sudoeste 35 Sudoeste 0 -- -- 55
2020-01-15 11:00:00 13 8 Este 42 Oeste 0 -- -- 54
2020-01-15 10:00:00 12.4 15 Sudoeste 48 Sur 0 -- -- 54
2020-01-15 09:00:00 12 18 Sudoeste 56 Sudoeste 0 -- -- 54
2020-01-15 08:00:00 12 13 Sur 56 Sudoeste 0 -- -- 53
2020-01-15 07:00:00 11.7 13 Sudoeste 46 Sudoeste 0 -- -- 53
2020-01-15 06:00:00 11.4 17 Sur 44 Sur 0 -- -- 54
2020-01-15 05:00:00 11.3 18 Sur 48 Sur 0 -- -- 54
2020-01-15 04:00:00 11.7 17 Sudeste 49 Sur 0 -- -- 51
2020-01-15 03:00:00 11.5 8 Sur 29 Nordeste 0 -- -- 52
2020-01-15 02:00:00 11.6 8 Sur 35 Sudoeste 0 -- -- 52
2020-01-15 01:00:00 11.8 11 Sur 33 Sur 0 -- -- 51
2020-01-15 00:00:00 11.2 9 Sudoeste 27 Oeste 0 -- -- 53
2020-01-14 23:00:00 10.8 7 Este 40 Sur 0 -- -- 55
2020-01-14 22:00:00 11.6 14 Sur 33 Sudoeste 0 -- -- 51
2020-01-14 21:00:00 10.9 5 Sur 29 Sudoeste 0 -- -- 50
2020-01-14 20:00:00 11.9 15 Sudoeste 41 Sur 0 -- -- 49
2020-01-14 19:00:00 12.1 9 Sur 32 Sur 0 -- -- 49
2020-01-14 18:00:00 12.9 14 Sur 33 Sur 0 -- -- 46
2020-01-14 17:00:00 13.8 16 Sur 31 Sur 0 -- -- 44
2020-01-14 16:00:00 14.5 11 Sur 41 Sur 0 -- -- 45
2020-01-14 15:00:00 15 14 Sur 42 Sur 0 -- -- 42
2020-01-14 14:00:00 15.5 8 Sur 32 Sudeste 0 -- -- 43
2020-01-14 13:00:00 14.8 17 Sur 33 Sur 0 -- -- 48
2020-01-14 12:00:00 14.1 11 Sur 35 Sur 0 -- -- 50
2020-01-14 11:00:00 12.2 8 Sur 36 Sur 0 -- -- 54
2020-01-14 10:00:00 11.5 10 Sudeste 28 Sudeste 0 -- -- 54
2020-01-14 09:00:00 11.1 10 Sudeste 30 Sur 0 -- -- 54
2020-01-14 08:00:00 10.8 10 Sur 32 Sur 0 -- -- 53
2020-01-14 07:00:00 10.9 14 Sur 31 Sudeste 0 -- -- 51
2020-01-14 06:00:00 10.7 6 Sudeste 31 Sudoeste 0 -- -- 50
2020-01-14 05:00:00 11.6 12 Sudeste 30 Sur 0 -- -- 45
2020-01-14 04:00:00 11.3 10 Sudeste 27 Sudeste 0 -- -- 45
2020-01-14 03:00:00 11.7 4 Este 34 Sur 0 -- -- 44
2020-01-14 02:00:00 11.4 9 Sudeste 32 Sur 0 -- -- 46
2020-01-14 01:00:00 11.1 7 Este 17 Este 0 -- -- 45
2020-01-14 00:00:00 11.2 8 Sur 22 Este 0 -- -- 45
2020-01-13 23:00:00 9.6 6 Sudeste 19 Sudeste 0 -- -- 50
2020-01-13 22:00:00 10.7 4 Sudeste 23 Sur 0 -- -- 53
2020-01-13 21:00:00 11.6 7 Sur 24 Sur 0 -- -- 46
2020-01-13 20:00:00 11.7 8 Sur 23 Este 0 -- -- 47
2020-01-13 19:00:00 11.7 7 Sudeste 23 Sudeste 0 -- -- 47
2020-01-13 18:00:00 12.5 8 Sur 27 Sur 0 -- -- 43
2020-01-13 17:00:00 14 7 Sur 25 Sudeste 0 -- -- 42
2020-01-13 16:00:00 15 9 Sur 22 Sudeste 0 -- -- 41
2020-01-13 15:00:00 14.2 4 Sudeste 18 Este 0 -- -- 49
2020-01-13 14:00:00 13.1 9 Sudeste 26 Sur 0 -- -- 54
2020-01-13 13:00:00 12.3 3 Norte 11 Norte 0 -- -- 64
2020-01-13 12:00:00 7.1 2 Norte 6 Sudoeste 0 -- -- 100
2020-01-13 11:00:00 2.5 0 Calma 4 Norte 0 -- -- 100
2020-01-13 10:00:00 0.4 0 Calma 4 Sur 0 -- -- 100
2020-01-13 09:00:00 -0.4 0 Calma 2 Sur 0 -- -- 100
2020-01-13 08:00:00 -0.2 0 Calma 3 Sur 0 -- -- 99
2020-01-13 07:00:00 0 0 Calma 2 Sudeste 0 -- -- 99
2020-01-13 06:00:00 0.2 0 Calma 2 Sudoeste 0 -- -- 99
2020-01-13 05:00:00 0.5 0 Calma 2 Sudeste 0 -- -- 99
2020-01-13 04:00:00 0.9 0 Calma 2 Sudeste 0 -- -- 99
2020-01-13 03:00:00 1.4 0 Calma 2 Este 0 -- -- 99
2020-01-13 02:00:00 1.9 0 Calma 2 Este 0 -- -- 99
2020-01-13 01:00:00 2.1 0 Calma 2 Sudoeste 0 -- -- 99
2020-01-13 00:00:00 1.8 0 Calma 0 Calma 0 -- -- 98
2020-01-12 23:00:00 1.3 0 Calma 2 Sudeste 0 -- -- 98
2020-01-12 22:00:00 1.4 0 Calma 0 Calma 0 -- -- 97
2020-01-12 21:00:00 2 0 Calma 3 Sudeste 0 -- -- 95
2020-01-12 20:00:00 3.1 0 Calma 3 Sudeste 0 -- -- 94
2020-01-12 19:00:00 4.4 0 Calma 4 Este 0 -- -- 91
2020-01-12 18:00:00 6.8 0 Calma 9 Sudeste 0 -- -- 88
2020-01-12 17:00:00 10.3 4 Sudeste 9 Noroeste 0 -- -- 78
2020-01-12 16:00:00 12 0 Calma 5 Sudeste 0 -- -- 74
2020-01-12 15:00:00 11.3 0 Calma 3 Sudoeste 0 -- -- 70
2020-01-12 14:00:00 9 0 Calma 5 Sudeste 0 -- -- 80
2020-01-12 13:00:00 4.6 0 Calma 3 Nordeste 0 -- -- 100
2020-01-12 12:00:00 2.1 0 Calma 4 Norte 0 -- -- 100
2020-01-12 11:00:00 1.1 0 Calma 3 Este 0 -- -- 100
2020-01-12 10:00:00 0.5 0 Calma 5 Este 0 -- -- 100
2020-01-12 09:00:00 0.1 2 Sudeste 5 Sudeste 0 -- -- 100
2020-01-12 08:00:00 0.2 0 Calma 5 Sudeste 0 -- -- 99
2020-01-12 07:00:00 0.3 2 Sudeste 6 Este 0 -- -- 99
2020-01-12 06:00:00 0.3 0 Calma 4 Este 0 -- -- 99
2020-01-12 05:00:00 0.3 0 Calma 4 Sudeste 0 -- -- 99
2020-01-12 04:00:00 0.3 0 Calma 3 Este 0 -- -- 99
2020-01-12 03:00:00 0.5 0 Calma 3 Sur 0 -- -- 99
2020-01-12 02:00:00 0.9 0 Calma 2 Sudeste 0 -- -- 99
2020-01-12 01:00:00 1.3 0 Calma 2 Nordeste 0 -- -- 98
2020-01-12 00:00:00 1.1 0 Calma 2 Sudeste 0 -- -- 98
2020-01-11 23:00:00 0.4 0 Calma 3 Sudeste 0 -- -- 97
2020-01-11 22:00:00 0.7 0 Calma 2 Sudeste 0 -- -- 97
2020-01-11 21:00:00 1.5 0 Calma 2 Sudeste 0 -- -- 95
2020-01-11 20:00:00 2.4 0 Calma 3 Sudeste 0 -- -- 94
2020-01-11 19:00:00 3.7 0 Calma 5 Sudeste 0 -- -- 92
2020-01-11 18:00:00 5.8 2 Sudeste 6 Este 0.2 -- -- 88
2020-01-11 17:00:00 8.9 4 Sudeste 8 Sudeste 0 -- -- 79
2020-01-11 16:00:00 11.2 3 Sur 4 Sur 0 -- -- 76
2020-01-11 15:00:00 10.5 0 Calma 3 Sur 0 -- -- 83
2020-01-11 14:00:00 6.4 0 Calma 3 Oeste 0 -- -- 99
2020-01-11 13:00:00 5.1 0 Calma 5 Norte 0 -- -- 99
2020-01-11 12:00:00 4.4 2 Norte 5 Noroeste 0 -- -- 100
2020-01-11 11:00:00 4 0 Calma 5 Este 0 -- -- 100
2020-01-11 10:00:00 3.6 0 Calma 5 Sudeste 0 -- -- 100
2020-01-11 09:00:00 3.5 0 Calma 5 Sudeste 0 -- -- 99
2020-01-11 08:00:00 3.5 3 Este 8 Sudeste 0 -- -- 99
2020-01-11 07:00:00 3.7 2 Sudeste 6 Este 0 -- -- 99
2020-01-11 06:00:00 3.8 3 Este 5 Nordeste 0 -- -- 99
2020-01-11 05:00:00 4.1 0 Calma 6 Sudeste 0 -- -- 99
2020-01-11 04:00:00 4.3 3 Sudeste 4 Sudeste 0 -- -- 99
2020-01-11 03:00:00 4.6 0 Calma 4 Sudeste 0 -- -- 99
2020-01-11 02:00:00 4.8 0 Calma 2 Nordeste 0 -- -- 99
2020-01-11 01:00:00 4.7 0 Calma 2 Nordeste 0 -- -- 98
2020-01-11 00:00:00 4 0 Calma 3 Sudeste 0 -- -- 98
2020-01-10 23:00:00 4.1 0 Calma 3 Este 0 -- -- 96
2020-01-10 22:00:00 5.4 0 Calma 3 Sudeste 0 -- -- 95
2020-01-10 21:00:00 7.2 0 Calma 4 Sudoeste 0 -- -- 96
2020-01-10 20:00:00 7.7 2 Sudeste 5 Noroeste 0 -- -- 96
2020-01-10 19:00:00 8.7 0 Calma 5 Oeste 0.2 -- -- 95
2020-01-10 18:00:00 9.1 2 Este 9 Este 0.6 -- -- 93
2020-01-10 17:00:00 9.8 0 Calma 7 Sudeste 0.4 -- -- 92
2020-01-10 16:00:00 10.3 3 Noroeste 18 Norte 1 -- -- 87
2020-01-10 15:00:00 12.8 5 Noroeste 23 Noroeste 0.2 -- -- 73
2020-01-10 14:00:00 10.9 2 Este 6 Nordeste 0 -- -- 91
2020-01-10 13:00:00 10.2 5 Sur 21 Norte 4.6 -- -- 90
2020-01-10 12:00:00 10.3 2 Este 17 Norte 3.6 -- -- 92
2020-01-10 11:00:00 10.1 4 Norte 13 Oeste 0.8 -- -- 89
2020-01-10 10:00:00 9.2 6 Oeste 20 Sudoeste 1.6 -- -- 91
2020-01-10 09:00:00 8.7 2 Oeste 12 Oeste 1.4 -- -- 94
2020-01-10 08:00:00 7.9 3 Este 10 Sudeste 0.4 -- -- 95
2020-01-10 07:00:00 7.7 3 Sur 8 Nordeste 0.2 -- -- 95
2020-01-10 06:00:00 8.3 2 Sur 8 Sudeste 1 -- -- 91
2020-01-10 05:00:00 8.6 2 Sudoeste 10 Sudoeste 0.4 -- -- 89
2020-01-10 04:00:00 8 2 Nordeste 8 Este 0.2 -- -- 95
2020-01-10 03:00:00 8.4 2 Sur 25 Oeste 3 -- -- 90
2020-01-10 02:00:00 9 0 Calma 10 Sur 0.8 -- -- 91
2020-01-10 01:00:00 9.1 4 Sudeste 8 Este 0.6 -- -- 94
2020-01-10 00:00:00 9.5 3 Este 9 Este 0.8 -- -- 93
2020-01-09 23:00:00 9.9 4 Sur 9 Nordeste 1 -- -- 89
2020-01-09 22:00:00 10.3 0 Calma 14 Sur 0 -- -- 88
2020-01-09 21:00:00 11 5 Sur 19 Sudoeste 0.4 -- -- 82
2020-01-09 20:00:00 11 4 Sur 13 Sudoeste 0.4 -- -- 83
2020-01-09 19:00:00 11 4 Oeste 28 Oeste 1 -- -- 86
2020-01-09 18:00:00 13.3 20 Oeste 47 Oeste 0 -- -- 76
2020-01-09 17:00:00 15.3 6 Sudeste 31 Sudeste 0 -- -- 53
2020-01-09 16:00:00 15.7 9 Sur 37 Sur 0 -- -- 52
2020-01-09 15:00:00 16 9 Este 38 Sur 0 -- -- 51
2020-01-09 14:00:00 16 9 Sur 32 Sudoeste 0 -- -- 53
2020-01-09 13:00:00 16.4 9 Sudoeste 31 Sudoeste 0 -- -- 50
2020-01-09 12:00:00 15.7 6 Sur 25 Sudeste 0 -- -- 54
2020-01-09 11:00:00 14.2 12 Sudeste 29 Sudeste 0 -- -- 55
2020-01-09 10:00:00 13.7 6 Sudeste 24 Sur 0 -- -- 57
2020-01-09 09:00:00 12.5 4 Sur 19 Sur 0 -- -- 61
2020-01-09 08:00:00 12.8 4 Sur 26 Sudeste 0 -- -- 60
2020-01-09 07:00:00 11.2 4 Sudeste 15 Sudeste 0 -- -- 71
2020-01-09 06:00:00 12.8 6 Sudeste 26 Sudeste 0 -- -- 64
2020-01-09 05:00:00 12.5 11 Sudoeste 28 Sudeste 0 -- -- 69
2020-01-09 04:00:00 6.4 4 Noroeste 14 Este 0 -- -- 100
2020-01-09 03:00:00 2.8 0 Calma 6 Sur 0 -- -- 99
2020-01-09 02:00:00 3.3 0 Calma 4 Sudeste 0 -- -- 98
2020-01-09 01:00:00 4.4 0 Calma 2 Noroeste 0 -- -- 98
2020-01-09 00:00:00 4.4 0 Calma 3 Noroeste 0 -- -- 98
2020-01-08 23:00:00 4 0 Calma 3 Sudeste 0 -- -- 98
2020-01-08 22:00:00 4.1 0 Calma 3 Sudeste 0 -- -- 96
2020-01-08 21:00:00 5.1 0 Calma 3 Sudeste 0 -- -- 95
2020-01-08 20:00:00 6.2 0 Calma 4 Sudeste 0 -- -- 93
2020-01-08 19:00:00 7.8 0 Calma 6 Sudeste 0 -- -- 92
2020-01-08 18:00:00 9.9 4 Sudeste 6 Este 0 -- -- 87
2020-01-08 17:00:00 13.4 4 Sudeste 8 Noroeste 0 -- -- 77
2020-01-08 16:00:00 16.5 4 Noroeste 10 Noroeste 0 -- -- 70
2020-01-08 15:00:00 16.2 0 Calma 4 Sudoeste 0 -- -- 69
2020-01-08 14:00:00 13.1 0 Calma 5 Sudoeste 0 -- -- 77
2020-01-08 13:00:00 9.7 0 Calma 3 Este 0 -- -- 91
2020-01-08 12:00:00 5.7 0 Calma 3 Nordeste 0 -- -- 99
2020-01-08 11:00:00 4.7 0 Calma 3 Nordeste 0 -- -- 99
2020-01-08 10:00:00 4.1 0 Calma 2 Sudeste 0 -- -- 99
2020-01-08 09:00:00 3.8 0 Calma 2 Norte 0 -- -- 99
2020-01-08 08:00:00 3.5 0 Calma 2 Sudeste 0 -- -- 99
2020-01-08 07:00:00 3 0 Calma 0 Calma 0 -- -- 98
2020-01-08 06:00:00 2.9 0 Calma 2 Este 0 -- -- 98
2020-01-08 05:00:00 3.2 0 Calma 4 Sur 0 -- -- 98
2020-01-08 04:00:00 3.4 0 Calma 4 Sur 0 -- -- 98
2020-01-08 03:00:00 3.6 0 Calma 2 Sur 0 -- -- 97
2020-01-08 02:00:00 3.9 0 Calma 2 Sur 0 -- -- 97
2020-01-08 01:00:00 4 0 Calma 4 Sudeste 0 -- -- 97
2020-01-08 00:00:00 4.4 0 Calma 3 Sudeste 0 -- -- 97
2020-01-07 23:00:00 4.6 0 Calma 2 Sur 0 -- -- 97
2020-01-07 22:00:00 4.6 0 Calma 3 Sudeste 0 -- -- 95
2020-01-07 21:00:00 5.3 0 Calma 3 Sudeste 0 -- -- 94
2020-01-07 20:00:00 6.3 0 Calma 5 Sudeste 0 -- -- 91
2020-01-07 19:00:00 7.9 0 Calma 5 Sudeste 0 -- -- 88
2020-01-07 18:00:00 9.8 2 Sudeste 8 Sudeste 0 -- -- 83
2020-01-07 17:00:00 13.9 5 Sudeste 8 Este 0 -- -- 71
2020-01-07 16:00:00 16.6 0 Calma 7 Sudeste 0 -- -- 65
2020-01-07 15:00:00 16 2 Sudeste 6 Sudeste 0 -- -- 63
2020-01-07 14:00:00 15 0 Calma 5 Sur 0 -- -- 65
2020-01-07 13:00:00 12.3 0 Calma 4 Sur 0 -- -- 76
2020-01-07 12:00:00 8.6 0 Calma 5 Oeste 0 -- -- 93
2020-01-07 11:00:00 5.7 0 Calma 2 Nordeste 0 -- -- 99
2020-01-07 10:00:00 3.8 0 Calma 2 Sudeste 0 -- -- 98
2020-01-07 09:00:00 3.4 0 Calma 4 Sudeste 0 -- -- 97
2020-01-07 08:00:00 4.5 0 Calma 3 Sudeste 0 -- -- 97
2020-01-07 07:00:00 5 0 Calma 2 Este 0 -- -- 98
2020-01-07 06:00:00 4.7 0 Calma 3 Sur 0 -- -- 98
2020-01-07 05:00:00 4.2 0 Calma 0 Calma 0 -- -- 98
2020-01-07 04:00:00 3.2 0 Calma 3 Sudeste 0 -- -- 96
2020-01-07 03:00:00 4.5 0 Calma 4 Sudeste 0 -- -- 96
2020-01-07 02:00:00 5.7 0 Calma 2 Sudeste 0 -- -- 98
2020-01-07 01:00:00 5 0 Calma 2 Sur 0 -- -- 96
2020-01-07 00:00:00 5.2 0 Calma 4 Sudeste 0 -- -- 95
2020-01-06 23:00:00 6 0 Calma 5 Sur 0 -- -- 94
2020-01-06 22:00:00 7.4 0 Calma 3 Este 0 -- -- 93
2020-01-06 21:00:00 7.4 2 Sudeste 4 Este 0 -- -- 94
2020-01-06 20:00:00 6.9 0 Calma 6 Sur 0 -- -- 92
2020-01-06 19:00:00 7.1 2 Oeste 6 Sur 0 -- -- 87
2020-01-06 18:00:00 10.3 2 Oeste 15 Sudoeste 0 -- -- 79
2020-01-06 17:00:00 12.4 8 Noroeste 18 Noroeste 0 -- -- 71
2020-01-06 16:00:00 13.5 6 Norte 16 Norte 0 -- -- 64
2020-01-06 15:00:00 13.9 4 Norte 17 Noroeste 0 -- -- 59
2020-01-06 14:00:00 14.3 2 Sudeste 9 Sudeste 0 -- -- 62
2020-01-06 13:00:00 11.8 0 Calma 4 Este 0 -- -- 71
2020-01-06 12:00:00 7.7 2 Sudoeste 4 Sur 0 -- -- 96
2020-01-06 11:00:00 2.4 0 Calma 3 Sur 0 -- -- 100
2020-01-06 10:00:00 0.3 0 Calma 2 Oeste 0 -- -- 99